createdAt,value
2022-08-24T00:00:44.674Z,12.75
2022-08-24T00:03:14.705Z,11.77
2022-08-24T00:05:43.971Z,11.32
2022-08-24T00:08:13.379Z,65.75
2022-08-24T00:10:43.026Z,15.18
2022-08-24T00:13:12.342Z,12.70
2022-08-24T00:15:42.397Z,13.05
2022-08-24T00:18:12.310Z,11.73
2022-08-24T00:20:45.296Z,19.03
2022-08-24T00:23:14.839Z,16.52
2022-08-24T00:25:44.407Z,11.10
2022-08-24T00:28:14.056Z,11.95
2022-08-24T00:30:43.704Z,13.48
2022-08-24T00:33:12.949Z,10.80
2022-08-24T00:35:42.268Z,14.73
2022-08-24T00:38:11.700Z,12.45
2022-08-24T00:40:47.069Z,17.90
2022-08-24T00:43:19.746Z,14.48
2022-08-24T00:48:28.518Z,12.75
2022-08-24T00:51:03.601Z,15.40
2022-08-24T00:53:38.996Z,16.67
2022-08-24T00:56:16.918Z,13.10
2022-08-24T00:58:56.077Z,17.80
2022-08-24T01:01:28.664Z,14.25
2022-08-24T01:03:59.798Z,10.60
2022-08-24T01:06:29.502Z,9.68
2022-08-24T01:08:58.999Z,10.63
2022-08-24T01:11:33.913Z,12.55
2022-08-24T01:14:08.909Z,9.88
2022-08-24T01:16:59.882Z,11.35
2022-08-24T01:19:39.988Z,10.07
2022-08-24T01:22:33.826Z,10.73
2022-08-24T01:25:05.805Z,9.73
2022-08-24T01:27:40.530Z,14.60
2022-08-24T01:30:18.430Z,14.10
2022-08-24T01:33:08.700Z,11.93
2022-08-24T01:35:43.217Z,10.27
2022-08-24T01:38:21.241Z,11.48
2022-08-24T01:41:06.553Z,8.50
2022-08-24T01:43:42.597Z,12.07
2022-08-24T01:46:19.045Z,13.68
2022-08-24T01:48:53.396Z,11.15
2022-08-24T01:51:26.071Z,8.95
2022-08-24T01:53:59.275Z,9.82
2022-08-24T01:56:39.095Z,13.45
2022-08-24T01:59:15.401Z,8.87
2022-08-24T02:01:56.415Z,8.00
2022-08-24T02:04:25.921Z,6.10
2022-08-24T02:06:55.873Z,8.18
2022-08-24T02:09:25.177Z,9.00
2022-08-24T02:12:00.299Z,13.43
2022-08-24T02:14:30.635Z,5.85
2022-08-24T02:19:31.362Z,7.78
2022-08-24T02:22:02.870Z,9.50
2022-08-24T02:24:33.648Z,8.85
2022-08-24T02:27:07.014Z,7.07
2022-08-24T02:29:36.645Z,6.53
2022-08-24T02:32:09.445Z,9.13
2022-08-24T02:34:38.769Z,7.75
2022-08-24T02:37:09.155Z,6.07
2022-08-24T02:39:40.632Z,8.40
2022-08-24T02:42:10.392Z,5.90
2022-08-24T02:44:40.626Z,9.00
2022-08-24T02:47:10.911Z,6.68
2022-08-24T02:49:40.133Z,7.30
2022-08-24T02:52:09.618Z,8.65
2022-08-24T02:54:39.023Z,6.57
2022-08-24T02:57:08.311Z,5.07
2022-08-24T02:59:37.998Z,6.57
2022-08-24T03:02:07.506Z,9.18
2022-08-24T03:04:37.035Z,8.82
2022-08-24T03:07:07.023Z,5.90
2022-08-24T03:09:36.290Z,5.18
2022-08-24T03:12:05.946Z,6.40
2022-08-24T03:14:37.338Z,6.03
2022-08-24T03:17:07.358Z,7.15
2022-08-24T03:19:36.841Z,6.35
2022-08-24T03:22:06.912Z,7.60
2022-08-24T03:24:36.871Z,6.10
2022-08-24T03:27:06.724Z,7.88
2022-08-24T03:29:38.123Z,11.35
2022-08-24T03:32:09.627Z,5.90
2022-08-24T03:34:39.499Z,8.80
2022-08-24T03:37:09.043Z,4.72
2022-08-24T03:39:41.316Z,6.68
2022-08-24T03:42:10.690Z,6.00
2022-08-24T03:44:40.175Z,6.43
2022-08-24T03:47:12.252Z,7.07
2022-08-24T03:49:41.853Z,12.75
2022-08-24T03:52:11.528Z,8.23
2022-08-24T03:54:40.859Z,5.25
2022-08-24T03:57:10.905Z,7.10
2022-08-24T03:59:46.480Z,7.88
2022-08-24T04:02:16.119Z,5.28
2022-08-24T04:04:45.526Z,6.63
2022-08-24T04:07:14.946Z,8.68
2022-08-24T04:09:44.474Z,7.43
2022-08-24T04:12:13.830Z,7.82
2022-08-24T04:14:43.139Z,8.50
2022-08-24T04:17:13.928Z,5.95
2022-08-24T04:19:58.808Z,5.60
2022-08-24T04:22:31.470Z,8.15
2022-08-24T04:27:32.267Z,9.52
2022-08-24T04:30:01.921Z,10.05
2022-08-24T04:32:34.574Z,8.35
2022-08-24T04:35:04.935Z,8.30
2022-08-24T04:37:35.132Z,10.98
2022-08-24T04:40:06.316Z,10.02
2022-08-24T04:42:36.387Z,7.22
2022-08-24T04:45:06.773Z,8.80
2022-08-24T04:47:36.181Z,7.82
2022-08-24T04:50:05.698Z,6.25
2022-08-24T04:52:35.014Z,7.95
2022-08-24T04:55:04.883Z,10.40
2022-08-24T05:00:07.999Z,13.65
2022-08-24T05:02:44.909Z,14.55
2022-08-24T05:05:17.300Z,9.43
2022-08-24T05:10:29.321Z,11.93
2022-08-24T05:13:06.940Z,9.73
2022-08-24T05:15:38.414Z,9.23
2022-08-24T05:18:10.932Z,7.32
2022-08-24T05:20:46.613Z,9.25
2022-08-24T05:23:20.095Z,8.75
2022-08-24T05:25:52.463Z,8.35
2022-08-24T05:28:24.055Z,5.85
2022-08-24T05:30:57.194Z,7.93
2022-08-24T05:33:28.556Z,7.68
2022-08-24T05:35:58.600Z,9.43
2022-08-24T05:38:30.772Z,5.72
2022-08-24T05:41:02.176Z,6.22
2022-08-24T05:43:32.659Z,5.90
2022-08-24T05:46:03.142Z,7.80
2022-08-24T05:48:34.225Z,7.07
2022-08-24T05:51:04.649Z,5.75
2022-08-24T05:53:34.959Z,7.18
2022-08-24T05:56:08.598Z,7.57
2022-08-24T05:58:40.475Z,7.30
2022-08-24T06:01:18.319Z,7.28
2022-08-24T06:03:48.420Z,5.30
2022-08-24T06:06:19.311Z,7.13
2022-08-24T06:08:51.082Z,10.80
2022-08-24T06:11:30.199Z,5.00
2022-08-24T06:14:07.282Z,6.93
2022-08-24T06:16:38.761Z,8.25
2022-08-24T06:19:10.247Z,6.63
2022-08-24T06:21:39.834Z,5.90
2022-08-24T06:24:09.741Z,9.57
2022-08-24T06:26:58.661Z,7.20
2022-08-24T06:29:28.286Z,12.73
2022-08-24T06:31:57.936Z,8.27
2022-08-24T06:34:29.120Z,9.40
2022-08-24T06:36:58.420Z,8.88
2022-08-24T06:39:27.707Z,8.52
2022-08-24T06:41:58.160Z,7.85
2022-08-24T06:44:27.622Z,5.35
2022-08-24T06:46:57.878Z,5.53
2022-08-24T06:49:27.210Z,5.43
2022-08-24T06:51:56.719Z,5.15
2022-08-24T06:54:26.139Z,4.88
2022-08-24T06:56:57.931Z,5.90
2022-08-24T06:59:30.641Z,4.97
2022-08-24T07:02:01.080Z,5.63
2022-08-24T07:04:31.729Z,6.18
2022-08-24T07:07:01.887Z,7.35
2022-08-24T07:09:36.279Z,4.88
2022-08-24T07:12:06.144Z,6.18
2022-08-24T07:14:38.449Z,6.18
2022-08-24T07:17:09.256Z,6.68
2022-08-24T07:19:39.311Z,7.30
2022-08-24T07:22:08.767Z,7.03
2022-08-24T07:24:39.168Z,5.88
2022-08-24T07:27:09.078Z,4.88
2022-08-24T07:29:50.358Z,9.05
2022-08-24T07:32:23.625Z,5.53
2022-08-24T07:34:53.116Z,5.68
2022-08-24T07:37:22.526Z,7.05
2022-08-24T07:39:51.899Z,6.88
2022-08-24T07:42:29.710Z,8.55
2022-08-24T07:45:07.680Z,5.95
2022-08-24T07:47:54.643Z,7.75
2022-08-24T07:50:33.095Z,6.88
2022-08-24T07:53:14.876Z,6.18
2022-08-24T07:56:17.875Z,7.22
2022-08-24T07:58:50.321Z,4.97
2022-08-24T08:01:32.831Z,6.35
2022-08-24T08:04:04.714Z,8.98
2022-08-24T08:06:36.170Z,4.63
2022-08-24T08:09:08.320Z,7.13
2022-08-24T08:11:44.478Z,13.80
2022-08-24T08:14:18.061Z,5.65
2022-08-24T08:16:48.337Z,4.20
2022-08-24T08:19:17.960Z,6.75
2022-08-24T08:22:09.633Z,3.85
2022-08-24T08:24:41.233Z,5.70
2022-08-24T08:27:10.657Z,4.00
2022-08-24T08:29:42.081Z,5.57
2022-08-24T08:32:18.283Z,4.90
2022-08-24T08:34:50.924Z,6.07
2022-08-24T08:37:22.662Z,5.47
2022-08-24T08:39:56.258Z,15.25
2022-08-24T08:42:33.553Z,4.63
2022-08-24T08:45:19.802Z,4.90
2022-08-24T08:48:15.453Z,5.00
2022-08-24T08:50:57.299Z,4.10
2022-08-24T08:53:50.492Z,5.25
2022-08-24T08:56:41.913Z,6.15
2022-08-24T08:59:40.192Z,5.60
2022-08-24T09:02:36.955Z,5.20
2022-08-24T09:05:43.471Z,10.63
2022-08-24T09:08:42.766Z,9.30
2022-08-24T09:11:33.854Z,8.30
2022-08-24T09:14:26.777Z,5.57
2022-08-24T09:16:58.108Z,10.15
2022-08-24T09:19:49.703Z,6.47
2022-08-24T09:22:21.629Z,6.45
2022-08-24T09:24:52.910Z,4.78
2022-08-24T09:27:45.842Z,7.75
2022-08-24T09:30:22.018Z,5.55
2022-08-24T09:33:30.485Z,6.22
2022-08-24T09:36:15.414Z,8.73
2022-08-24T09:38:52.561Z,8.82
2022-08-24T09:41:30.129Z,8.55
2022-08-24T09:44:31.288Z,20.75
2022-08-24T09:47:10.714Z,9.10
2022-08-24T09:49:43.028Z,7.53
2022-08-24T09:52:33.060Z,6.20
2022-08-24T09:55:12.433Z,8.15
2022-08-24T09:58:01.850Z,11.30
2022-08-24T10:01:01.014Z,11.90
2022-08-24T10:04:05.907Z,7.85
2022-08-24T10:06:57.013Z,16.88
2022-08-24T10:09:34.120Z,7.05
2022-08-24T10:12:09.825Z,7.10
2022-08-24T10:15:18.099Z,15.25
2022-08-24T10:18:07.435Z,12.45
2022-08-24T10:20:56.918Z,13.02
2022-08-24T10:23:58.451Z,10.48
2022-08-24T10:26:48.453Z,8.55
2022-08-24T10:29:41.370Z,11.95
2022-08-24T10:32:34.223Z,15.57
2022-08-24T10:35:30.884Z,16.52
2022-08-24T10:38:40.855Z,11.40
2022-08-24T10:41:26.623Z,7.60
2022-08-24T10:44:34.996Z,7.97
2022-08-24T10:47:17.556Z,6.55
2022-08-24T10:50:22.589Z,6.25
2022-08-24T10:53:09.509Z,6.00
2022-08-24T10:55:39.462Z,7.78
2022-08-24T10:58:11.719Z,9.02
2022-08-24T11:00:41.767Z,9.57
2022-08-24T11:03:16.137Z,6.88
2022-08-24T11:05:50.989Z,6.88
2022-08-24T11:08:28.648Z,6.70
2022-08-24T11:11:15.895Z,10.68
2022-08-24T11:14:11.951Z,15.75
2022-08-24T11:16:44.153Z,11.25
2022-08-24T11:19:17.298Z,7.35
2022-08-24T11:21:54.074Z,10.13
2022-08-24T11:24:43.373Z,9.32
2022-08-24T11:27:28.073Z,9.10
2022-08-24T11:30:00.413Z,11.05
2022-08-24T11:32:41.215Z,8.90
2022-08-24T11:35:18.741Z,9.52
2022-08-24T11:37:48.924Z,9.27
2022-08-24T11:40:21.174Z,9.73
2022-08-24T11:43:13.973Z,11.80
2022-08-24T11:46:04.421Z,11.38
2022-08-24T11:48:58.700Z,11.65
2022-08-24T11:51:32.347Z,12.00
2022-08-24T11:54:13.537Z,10.70
2022-08-24T11:57:08.838Z,10.85
2022-08-24T12:00:02.120Z,12.93
2022-08-24T12:02:56.815Z,12.02
2022-08-24T12:06:04.810Z,13.48
2022-08-24T12:08:51.728Z,15.95
2022-08-24T12:11:49.073Z,19.35
2022-08-24T12:14:42.760Z,14.63
2022-08-24T12:17:32.023Z,18.13
2022-08-24T12:20:10.943Z,18.50
2022-08-24T12:22:42.923Z,13.35
2022-08-24T12:25:32.951Z,17.17
2022-08-24T12:28:02.223Z,18.55
2022-08-24T12:30:31.929Z,21.40
2022-08-24T12:33:09.620Z,26.42
2022-08-24T12:35:43.670Z,26.48
2022-08-24T12:38:38.867Z,31.80
2022-08-24T12:41:22.553Z,21.75
2022-08-24T12:44:00.669Z,28.02
2022-08-24T12:46:30.455Z,20.02
2022-08-24T12:49:04.756Z,20.55
2022-08-24T12:51:56.436Z,19.08
2022-08-24T12:54:35.126Z,26.17
2022-08-24T12:57:25.411Z,20.83
2022-08-24T12:59:59.821Z,17.13
2022-08-24T13:02:34.982Z,24.90
2022-08-24T13:05:22.224Z,22.80
2022-08-24T13:07:56.467Z,18.33
2022-08-24T13:10:26.979Z,20.65
2022-08-24T13:13:12.032Z,20.35
2022-08-24T13:15:42.263Z,21.13
2022-08-24T13:18:12.503Z,19.92
2022-08-24T13:20:50.200Z,18.42
2022-08-24T13:23:22.523Z,19.52
2022-08-24T13:26:15.269Z,32.42
2022-08-24T13:28:49.626Z,22.63
2022-08-24T13:31:32.876Z,21.00
2022-08-24T13:34:23.698Z,18.20
2022-08-24T13:37:15.693Z,17.25
2022-08-24T13:40:12.552Z,15.52
2022-08-24T13:42:47.263Z,21.00
2022-08-24T13:45:21.218Z,20.33
2022-08-24T13:48:10.501Z,19.13
2022-08-24T13:51:04.121Z,21.63
2022-08-24T13:53:53.517Z,22.50
2022-08-24T13:56:29.683Z,16.30
2022-08-24T13:59:18.027Z,16.30
2022-08-24T14:02:10.780Z,16.63
2022-08-24T14:05:05.200Z,15.60
2022-08-24T14:07:47.313Z,15.27
2022-08-24T14:10:43.089Z,14.55
2022-08-24T14:13:26.354Z,16.55
2022-08-24T14:16:20.526Z,13.45
2022-08-24T14:19:09.324Z,17.20
2022-08-24T14:21:48.308Z,17.45
2022-08-24T14:24:40.397Z,19.40
2022-08-24T14:27:38.693Z,20.70
2022-08-24T14:30:27.941Z,17.08
2022-08-24T14:33:01.561Z,19.00
2022-08-24T14:35:52.973Z,20.92
2022-08-24T14:38:24.600Z,21.67
2022-08-24T14:41:14.757Z,16.20
2022-08-24T14:43:55.633Z,15.88
2022-08-24T14:46:29.326Z,20.52
2022-08-24T14:49:03.972Z,20.27
2022-08-24T14:51:55.950Z,19.60
2022-08-24T14:54:54.985Z,21.52
2022-08-24T14:57:47.851Z,19.13
2022-08-24T15:00:22.152Z,18.90
2022-08-24T15:03:14.903Z,21.00
2022-08-24T15:06:26.268Z,22.48
2022-08-24T15:09:27.022Z,20.00
2022-08-24T15:12:06.711Z,18.73
2022-08-24T15:14:52.811Z,17.83
2022-08-24T15:17:37.516Z,19.73
2022-08-24T15:20:21.021Z,27.50
2022-08-24T15:22:59.809Z,32.88
2022-08-24T15:25:36.565Z,24.77
2022-08-24T15:28:14.952Z,20.40
2022-08-24T15:30:54.455Z,22.88
2022-08-24T15:33:24.274Z,20.70
2022-08-24T15:36:08.832Z,20.88
2022-08-24T15:38:40.061Z,22.90
2022-08-24T15:41:37.029Z,22.85
2022-08-24T15:44:23.311Z,21.67
2022-08-24T15:46:56.889Z,16.75
2022-08-24T15:49:31.311Z,15.00
2022-08-24T15:52:07.903Z,16.58
2022-08-24T15:54:43.558Z,17.33
2022-08-24T15:57:31.343Z,16.35
2022-08-24T16:00:44.189Z,14.40
2022-08-24T16:03:50.023Z,19.48
2022-08-24T16:06:36.590Z,18.60
2022-08-24T16:09:24.892Z,14.95
2022-08-24T16:12:02.680Z,18.58
2022-08-24T16:14:47.070Z,15.57
2022-08-24T16:17:36.796Z,14.77
2022-08-24T16:20:13.384Z,15.48
2022-08-24T16:22:58.519Z,21.50
2022-08-24T16:25:33.046Z,14.10
2022-08-24T16:28:09.905Z,18.15
2022-08-24T16:30:46.227Z,16.42
2022-08-24T16:33:43.159Z,17.30
2022-08-24T16:36:19.474Z,18.55
2022-08-24T16:38:51.847Z,18.45
2022-08-24T16:41:24.500Z,22.70
2022-08-24T16:46:24.785Z,22.25
2022-08-24T16:48:56.035Z,17.42
2022-08-24T16:51:25.947Z,15.10
2022-08-24T16:53:55.421Z,13.68
2022-08-24T16:56:24.823Z,13.43
2022-08-24T16:58:54.224Z,16.38
2022-08-24T17:01:27.370Z,16.10
2022-08-24T17:03:56.806Z,16.83
2022-08-24T17:06:26.039Z,19.77
2022-08-24T17:08:57.513Z,21.98
2022-08-24T17:11:27.038Z,20.42
2022-08-24T17:13:56.268Z,18.70
2022-08-24T17:16:25.481Z,18.50
2022-08-24T17:18:54.831Z,18.08
2022-08-24T17:21:24.743Z,20.75
2022-08-24T17:23:54.169Z,18.88
2022-08-24T17:26:23.483Z,17.00
2022-08-24T17:28:56.891Z,14.43
2022-08-24T17:31:26.687Z,15.15
2022-08-24T17:33:55.941Z,13.48
2022-08-24T17:36:26.560Z,15.93
2022-08-24T17:39:02.033Z,10.27
2022-08-24T17:41:31.244Z,8.65
2022-08-24T17:44:02.533Z,10.23
2022-08-24T17:46:33.194Z,6.13
2022-08-24T17:49:02.376Z,8.07
2022-08-24T17:51:31.723Z,6.05
2022-08-24T17:54:00.912Z,5.38
2022-08-24T17:56:41.132Z,7.55
2022-08-24T17:59:28.882Z,5.25
2022-08-24T18:02:01.707Z,6.35
2022-08-24T18:04:32.787Z,5.30
2022-08-24T18:07:05.067Z,5.35
2022-08-24T18:09:37.234Z,7.65
2022-08-24T18:12:08.991Z,8.35
2022-08-24T18:14:38.750Z,5.70
2022-08-24T18:17:11.362Z,5.45
2022-08-24T18:19:42.450Z,4.45
2022-08-24T18:22:11.982Z,4.95
2022-08-24T18:24:42.137Z,7.53
2022-08-24T18:27:17.624Z,7.28
2022-08-24T18:29:52.334Z,5.40
2022-08-24T18:32:24.312Z,7.78
2022-08-24T18:35:00.188Z,7.25
2022-08-24T18:37:29.429Z,6.22
2022-08-24T18:39:58.777Z,7.50
2022-08-24T18:42:29.706Z,5.15
2022-08-24T18:44:59.245Z,8.80
2022-08-24T18:47:28.428Z,8.73
2022-08-24T18:49:57.809Z,6.25
2022-08-24T18:52:28.006Z,5.40
2022-08-24T18:54:57.237Z,8.95
2022-08-24T18:57:26.473Z,8.60
2022-08-24T18:59:55.819Z,6.63
2022-08-24T19:02:34.385Z,5.68
2022-08-24T19:05:23.576Z,7.18
2022-08-24T19:07:55.904Z,9.32
2022-08-24T19:10:27.672Z,8.75
2022-08-24T19:13:01.488Z,8.52
2022-08-24T19:15:40.095Z,9.75
2022-08-24T19:18:12.509Z,10.95
2022-08-24T19:20:48.422Z,6.45
2022-08-24T19:23:23.916Z,6.80
2022-08-24T19:25:54.756Z,7.70
2022-08-24T19:28:25.798Z,6.15
2022-08-24T19:30:58.557Z,13.45
2022-08-24T19:35:58.936Z,5.38
2022-08-24T19:38:28.425Z,7.38
2022-08-24T19:40:59.605Z,5.20
2022-08-24T19:43:30.208Z,7.13
2022-08-24T19:46:03.965Z,12.13
2022-08-24T19:48:36.750Z,8.85
2022-08-24T19:53:40.612Z,4.32
2022-08-24T19:56:10.337Z,5.47
2022-08-24T19:59:00.893Z,3.67
2022-08-24T20:01:35.853Z,5.05
2022-08-24T20:04:06.716Z,5.20
2022-08-24T20:06:37.673Z,9.32
2022-08-24T20:09:07.555Z,4.22
2022-08-24T20:11:38.194Z,6.45
2022-08-24T20:14:08.418Z,7.30
2022-08-24T20:16:52.860Z,3.53
2022-08-24T20:19:22.074Z,3.80
2022-08-24T20:21:51.327Z,5.35
2022-08-24T20:24:20.723Z,4.93
2022-08-24T20:26:49.941Z,9.23
2022-08-24T20:29:19.246Z,5.20
2022-08-24T20:31:51.916Z,6.25
2022-08-24T20:34:21.419Z,3.78
2022-08-24T20:36:52.634Z,5.43
2022-08-24T20:39:26.617Z,28.10
2022-08-24T20:41:56.940Z,5.10
2022-08-24T20:44:26.210Z,10.52
2022-08-24T20:46:56.699Z,4.80
2022-08-24T20:49:29.068Z,3.45
2022-08-24T20:51:58.309Z,2.92
2022-08-24T20:54:27.679Z,6.65
2022-08-24T20:56:57.386Z,8.30
2022-08-24T20:59:27.204Z,4.40
2022-08-24T21:01:57.421Z,6.40
2022-08-24T21:04:26.658Z,13.25
2022-08-24T21:06:58.750Z,22.25
2022-08-24T21:09:28.226Z,5.95
2022-08-24T21:11:57.616Z,4.55
2022-08-24T21:14:26.862Z,3.47
2022-08-24T21:16:59.060Z,4.00
2022-08-24T21:19:28.801Z,3.35
2022-08-24T21:21:57.988Z,4.18
2022-08-24T21:24:27.346Z,3.72
2022-08-24T21:26:57.035Z,3.58
2022-08-24T21:29:26.223Z,3.10
2022-08-24T21:32:15.316Z,2.78
2022-08-24T21:34:44.634Z,3.95
2022-08-24T21:37:16.966Z,4.15
2022-08-24T21:39:49.136Z,3.17
2022-08-24T21:42:19.196Z,5.90
2022-08-24T21:44:49.385Z,4.40
2022-08-24T21:47:18.920Z,5.80
2022-08-24T21:49:48.145Z,2.83
2022-08-24T21:52:17.928Z,3.58
2022-08-24T21:54:47.860Z,5.68
2022-08-24T21:57:17.085Z,2.65
2022-08-24T21:59:49.243Z,4.45
2022-08-24T22:02:20.704Z,2.58
2022-08-24T22:04:56.044Z,2.40
2022-08-24T22:07:26.740Z,3.97
2022-08-24T22:09:56.605Z,2.88
2022-08-24T22:12:26.054Z,3.78
2022-08-24T22:14:56.976Z,3.22
2022-08-24T22:17:26.226Z,3.10
2022-08-24T22:19:55.519Z,5.30
2022-08-24T22:22:24.752Z,3.35
2022-08-24T22:24:54.192Z,3.72
2022-08-24T22:27:25.004Z,3.00
2022-08-24T22:29:54.566Z,2.95
2022-08-24T22:32:23.931Z,3.90
2022-08-24T22:34:53.988Z,4.60
2022-08-24T22:37:23.684Z,4.35
2022-08-24T22:39:54.319Z,4.68
2022-08-24T22:42:23.675Z,4.93
2022-08-24T22:44:53.184Z,3.00
2022-08-24T22:47:26.902Z,3.08
2022-08-24T22:49:57.251Z,3.92
2022-08-24T22:52:27.576Z,3.72
2022-08-24T22:54:59.593Z,3.83
2022-08-24T22:57:30.335Z,3.17
2022-08-24T23:00:00.748Z,5.25
2022-08-24T23:02:31.246Z,3.75
2022-08-24T23:05:00.802Z,5.65
2022-08-24T23:07:30.308Z,4.70
2022-08-24T23:09:59.991Z,6.00
2022-08-24T23:12:30.404Z,5.18
2022-08-24T23:14:59.810Z,6.32
2022-08-24T23:17:29.014Z,5.22
2022-08-24T23:20:13.877Z,6.32
2022-08-24T23:22:44.031Z,6.20
2022-08-24T23:25:16.288Z,5.38
2022-08-24T23:27:49.387Z,10.77
2022-08-24T23:30:19.381Z,6.47
2022-08-24T23:32:48.949Z,5.30
2022-08-24T23:35:18.586Z,4.95
2022-08-24T23:37:47.756Z,6.97
2022-08-24T23:40:17.193Z,5.85
2022-08-24T23:42:46.556Z,6.13
2022-08-24T23:45:15.857Z,5.50
2022-08-24T23:47:45.422Z,6.95
2022-08-24T23:50:14.823Z,12.80
2022-08-24T23:52:44.780Z,26.92
2022-08-24T23:55:21.760Z,15.95
2022-08-24T23:57:52.045Z,9.95
